LIVE Streaming HD
Get Adobe Flash player
Annunci di Google
DNA SURF-SHOP
Annunci di Google
Video Settimana
BodemaAuto s.r.l
Annunci
Dati meteo stazione (refresh automatico ogni minuto)
Ostia(RM) VENTO: VELOCITÀ   PIOGGIA: QTA GIORNO TEMPERATURA: ATTUALE
SPOT: Kursaal Lido Ostia ---- Posizione su Googlemap:Latitudine: 41.71N Longitudine: 12.31E RAFFICA MASSIMA: QTA MENSILE: MASSIMA:
VELOCITÀ MEDIA: QTA ANNUALE: MINIMA:
DIREZIONE: UMIDITÀ: WIND CHILL:
TIPO: DEW POINT:
BEAUFORT: PRESSIONE:
I nostri partner
Annunci Privati
Ostia(RM) nelle ultime ore
Applica filtri in visualizzazione Intervallo delle letture nelle ultime

Ora Direzione Vento Velocita' Vento Media Vento Raffica Max. Temperatura Wind Chill Pioggia Pressione
14:25:33269 °(W)5.5 Kts5.3 Kts6.2 Kts31.7 °C34.55 °C0 mm1014.8 Hpa
14:20:19276 °(W)4.4 Kts4.8 Kts6.2 Kts31.7 °C34.49 °C0 mm1015.2 Hpa
14:16:08269 °(W)3.9 Kts4.73 Kts6.2 Kts31.8 °C34.57 °C0 mm1015.7 Hpa
14:10:53268 °(W)5.3 Kts5.33 Kts6.2 Kts31.7 °C34.54 °C0 mm1014.8 Hpa
14:05:41267 °(W)5.1 Kts4.86 Kts6.2 Kts31.8 °C34.63 °C0 mm1014.3 Hpa
14:00:27268 °(W)4.2 Kts4.53 Kts6.2 Kts31.8 °C34.58 °C0 mm1014.3 Hpa
13:55:36265 °(W)4.9 Kts4.86 Kts6.2 Kts31.7 °C34.51 °C0 mm1014.8 Hpa
13:50:23269 °(W)4.4 Kts4.6 Kts6.2 Kts31.7 °C34.49 °C0 mm1014.3 Hpa
13:46:10258 °(WSW)5.4 Kts5.43 Kts6.2 Kts31.7 °C34.54 °C0 mm1015.2 Hpa
13:40:49263 °(W)4.1 Kts5.43 Kts6.2 Kts31.8 °C34.58 °C0 mm1014.3 Hpa
13:36:17257 °(WSW)4.8 Kts4.76 Kts6.2 Kts32 °C34.86 °C0 mm1013.8 Hpa
13:31:16250 °(WSW)4.3 Kts4.46 Kts6.2 Kts32 °C34.84 °C0 mm1013.8 Hpa
13:26:00253 °(WSW)5.6 Kts5.6 Kts6.2 Kts31.8 °C34.67 °C0 mm1014.3 Hpa
13:20:47260 °(W)5.2 Kts5.16 Kts6.2 Kts32 °C34.9 °C0 mm1013.8 Hpa
13:15:36255 °(WSW)5.5 Kts5.03 Kts6.2 Kts32 °C34.9 °C0 mm1014.3 Hpa
13:10:21255 °(WSW)4.9 Kts5.23 Kts6.2 Kts32.2 °C35.1 °C0 mm1013.8 Hpa
13:06:01247 °(WSW)5.8 Kts5.1 Kts6.2 Kts32.2 °C35.14 °C0 mm1015.7 Hpa
13:00:48246 °(WSW)5.4 Kts5.53 Kts6.2 Kts32.2 °C35.13 °C0 mm1015 Hpa
12:55:33247 °(WSW)4.8 Kts5.06 Kts6.2 Kts32.5 °C35.44 °C0 mm1017.3 Hpa
12:50:19237 °(WSW)4.5 Kts4.56 Kts6.2 Kts32.5 °C35.43 °C0 mm1015.2 Hpa
12:46:08236 °(SW)5.3 Kts5.1 Kts6.2 Kts32.2 °C35.13 °C0 mm1015.7 Hpa
12:40:50236 °(SW)5.2 Kts5.53 Kts6.2 Kts32.2 °C35.13 °C0 mm1016.8 Hpa
12:34:35227 °(SW)4.4 Kts5.63 Kts6 Kts32.2 °C35.07 °C0 mm1014 Hpa
12:30:18229 °(SW)5 Kts5.26 Kts5.9 Kts32.2 °C35.1 °C0 mm1014 Hpa